Time;durP1;ratioP1;P1;durP2;ratioP2;P2;SDS_P1;SDS_P2;PMS_P1;PMS_P2;Temp;Humidity;BMP_temperature;BMP_pressure;BME280_temperature;BME280_humidity;BME280_pressure;Samples;Min_cycle;Max_cycle;Signal;HPM_P1;HPM_P2
2023/05/01 00:00:47;;;;;;;10.20;4.90;;;;;;;10.30;64.24;96180.66;5084698;28;20055;-73
2023/05/01 00:03:14;;;;;;;12.35;5.45;;;;;;;10.29;64.46;96175.53;5092110;28;20487;-75
2023/05/01 00:05:40;;;;;;;12.38;5.47;;;;;;;10.31;65.11;96179.53;5090744;27;20044;-75
2023/05/01 00:08:07;;;;;;;12.65;5.25;;;;;;;10.26;65.37;96173.44;5092858;28;20052;-75
2023/05/01 00:10:35;;;;;;;10.98;5.50;;;;;;;10.28;66.18;96172.00;5093174;28;20403;-75
2023/05/01 00:13:03;;;;;;;10.60;5.00;;;;;;;10.23;66.07;96171.31;5091212;28;20563;-75
2023/05/01 00:15:30;;;;;;;9.98;4.95;;;;;;;10.24;64.85;96164.81;5093628;28;20040;-75
2023/05/01 00:17:58;;;;;;;13.02;5.47;;;;;;;10.25;64.99;96166.41;5093152;28;20048;-73
2023/05/01 00:20:26;;;;;;;10.93;4.68;;;;;;;10.22;65.42;96167.00;5093394;28;20491;-74
2023/05/01 00:22:53;;;;;;;15.15;6.07;;;;;;;10.19;66.39;96163.81;5091457;28;20048;-73
2023/05/01 00:25:19;;;;;;;13.80;5.63;;;;;;;10.15;66.84;96160.13;5091034;28;20044;-73
2023/05/01 00:27:46;;;;;;;8.57;4.90;;;;;;;10.09;66.44;96157.88;5092795;28;20403;-75
2023/05/01 00:30:14;;;;;;;11.65;5.32;;;;;;;10.11;66.91;96161.88;5091929;28;20058;-73
2023/05/01 00:32:40;;;;;;;7.50;4.70;;;;;;;10.12;67.54;96154.50;5092450;28;20093;-73
2023/05/01 00:35:08;;;;;;;13.65;5.78;;;;;;;10.11;67.16;96148.28;5090873;28;20095;-73
2023/05/01 00:37:34;;;;;;;12.07;5.60;;;;;;;10.09;67.31;96139.63;5092730;28;20491;-75
2023/05/01 00:40:00;;;;;;;14.02;6.38;;;;;;;10.06;67.57;96137.53;5091944;28;20044;-75
2023/05/01 00:42:27;;;;;;;14.27;6.07;;;;;;;9.98;66.93;96132.91;5091372;28;20036;-73
2023/05/01 00:44:53;;;;;;;16.17;6.45;;;;;;;10.03;66.86;96131.97;5090751;28;20455;-73
2023/05/01 00:47:21;;;;;;;13.52;5.57;;;;;;;10.02;67.24;96128.41;5091534;28;20502;-75
2023/05/01 00:49:50;;;;;;;14.30;5.68;;;;;;;10.00;67.29;96127.16;5091683;28;20048;-75
2023/05/01 00:52:16;;;;;;;10.63;5.03;;;;;;;10.02;67.22;96120.25;5091809;28;20126;-74
2023/05/01 00:54:43;;;;;;;16.55;6.72;;;;;;;9.91;67.21;96116.25;5090694;28;20067;-74
2023/05/01 00:57:10;;;;;;;11.70;5.45;;;;;;;9.91;66.79;96116.25;5091685;28;21091;-75
2023/05/01 00:59:38;;;;;;;11.88;5.70;;;;;;;9.91;66.25;96119.78;5092314;28;20544;-74
2023/05/01 01:02:05;;;;;;;13.32;5.68;;;;;;;9.91;66.99;96113.53;5091815;28;20056;-75
2023/05/01 01:04:33;;;;;;;12.07;5.70;;;;;;;9.90;67.02;96111.94;5092183;28;20048;-74
2023/05/01 01:07:08;;;;;;;12.07;5.50;;;;;;;9.86;67.06;96109.06;5091450;28;20055;-74
2023/05/01 01:09:39;;;;;;;11.05;5.00;;;;;;;9.86;67.02;96106.31;5090658;28;20552;-75
2023/05/01 01:12:15;;;;;;;15.25;6.10;;;;;;;9.88;67.23;96114.19;5090440;28;20037;-74
2023/05/01 01:14:48;;;;;;;11.35;5.47;;;;;;;9.80;67.98;96102.16;5092101;28;20044;-74
2023/05/01 01:17:24;;;;;;;13.60;5.75;;;;;;;9.79;68.34;96103.28;5090910;28;20049;-75
2023/05/01 01:20:24;;;;;;;9.80;5.43;;;;;;;9.78;68.46;96103.63;5091914;28;20418;-74
2023/05/01 01:22:56;;;;;;;9.40;5.22;;;;;;;9.77;67.92;96096.59;5090648;28;20101;-74
2023/05/01 01:25:45;;;;;;;10.43;5.95;;;;;;;9.76;68.09;96100.41;5081649;28;20488;-74
2023/05/01 01:28:24;;;;;;;7.72;4.97;;;;;;;9.72;67.88;96092.09;5091192;28;20127;-74
2023/05/01 01:31:10;;;;;;;10.57;5.20;;;;;;;9.73;68.64;96084.75;5091468;28;20086;-74
2023/05/01 01:34:03;;;;;;;13.30;5.93;;;;;;;9.64;68.15;96095.59;5090742;28;20040;-75
2023/05/01 01:36:39;;;;;;;11.00;5.38;;;;;;;9.64;67.85;96096.41;5089630;28;20465;-74
2023/05/01 01:39:12;;;;;;;14.10;5.85;;;;;;;9.65;68.62;96089.84;5090556;28;20442;-74
2023/05/01 01:41:41;;;;;;;11.10;5.55;;;;;;;9.61;68.66;96098.97;5091241;28;20048;-75
2023/05/01 01:44:12;;;;;;;12.00;5.65;;;;;;;9.60;68.60;96092.72;5090507;28;20050;-74
2023/05/01 01:46:42;;;;;;;13.40;6.50;;;;;;;9.45;68.43;96090.47;5087585;28;20048;-75
2023/05/01 01:49:17;;;;;;;20.20;7.38;;;;;;;9.46;68.34;96086.63;5089522;28;20044;-74
2023/05/01 01:51:45;;;;;;;11.88;5.70;;;;;;;9.51;69.75;96082.97;5090588;28;20053;-74
2023/05/01 01:54:15;;;;;;;11.40;5.65;;;;;;;9.51;69.92;96089.19;5090549;28;20044;-75
2023/05/01 01:56:42;;;;;;;14.07;5.75;;;;;;;9.48;69.36;96089.03;5089238;27;20052;-74
2023/05/01 01:59:10;;;;;;;14.40;6.55;;;;;;;9.45;68.86;96090.47;5090437;28;20094;-75
2023/05/01 02:01:40;;;;;;;13.07;6.07;;;;;;;9.42;69.58;96085.66;5089841;28;20043;-74
2023/05/01 02:04:08;;;;;;;15.95;6.15;;;;;;;9.37;69.55;96083.09;5090217;28;20101;-74
2023/05/01 02:06:39;;;;;;;17.45;6.60;;;;;;;9.33;69.75;96077.47;5089234;28;20052;-75
2023/05/01 02:09:06;;;;;;;11.20;5.78;;;;;;;9.32;70.02;96080.53;5090770;28;20047;-75
2023/05/01 02:11:35;;;;;;;14.10;6.40;;;;;;;9.30;70.30;96080.84;5090567;28;20051;-75
2023/05/01 02:14:03;;;;;;;14.07;6.45;;;;;;;9.25;70.34;96075.56;5088837;27;20048;-75
2023/05/01 02:16:32;;;;;;;11.98;6.30;;;;;;;9.25;70.92;96069.31;5089894;28;20044;-74
2023/05/01 02:19:01;;;;;;;11.98;5.70;;;;;;;9.27;71.23;96070.59;5090614;28;20048;-75
2023/05/01 02:21:29;;;;;;;15.25;6.72;;;;;;;9.27;71.04;96067.09;5090039;28;20075;-74
2023/05/01 02:24:01;;;;;;;11.00;5.78;;;;;;;9.28;71.63;96057.81;5090670;28;20066;-74
2023/05/01 02:26:29;;;;;;;12.55;5.93;;;;;;;9.29;71.85;96060.22;5088331;28;20036;-74
2023/05/01 02:28:56;;;;;;;10.23;5.57;;;;;;;9.31;71.70;96057.19;5090479;28;20044;-74
2023/05/01 02:31:22;;;;;;;16.30;7.00;;;;;;;9.29;72.00;96059.41;5089610;28;20056;-75
2023/05/01 02:33:49;;;;;;;15.55;6.75;;;;;;;9.25;71.61;96058.47;5089848;28;20126;-74
2023/05/01 02:36:15;;;;;;;13.10;6.20;;;;;;;9.23;71.27;96055.25;5089485;28;20052;-74
2023/05/01 02:38:42;;;;;;;13.07;5.63;;;;;;;9.22;71.47;96053.66;5089610;28;20043;-74
2023/05/01 02:41:11;;;;;;;13.70;5.93;;;;;;;9.20;71.46;96050.44;5089988;28;20040;-74
2023/05/01 02:43:41;;;;;;;12.57;5.88;;;;;;;9.19;71.84;96048.84;5088480;28;20044;-74
2023/05/01 02:46:10;;;;;;;11.45;5.80;;;;;;;9.16;71.99;96047.56;5088295;28;20530;-74
2023/05/01 02:48:38;;;;;;;12.75;6.57;;;;;;;9.12;72.05;96036.50;5090296;28;20048;-75
2023/05/01 02:51:07;;;;;;;10.50;6.07;;;;;;;9.07;71.66;96042.09;5089711;28;20074;-75
2023/05/01 02:53:33;;;;;;;11.40;6.20;;;;;;;9.01;71.56;96048.00;5089084;28;20533;-74
2023/05/01 02:56:00;;;;;;;15.57;6.78;;;;;;;8.93;71.53;96046.03;5089144;28;20036;-74
2023/05/01 02:58:31;;;;;;;11.57;6.20;;;;;;;8.87;71.23;96040.78;5089897;28;20051;-75
2023/05/01 03:00:57;;;;;;;13.38;6.05;;;;;;;8.84;72.09;96041.41;5090070;28;20040;-75
2023/05/01 03:03:24;;;;;;;15.50;7.70;;;;;;;8.78;72.23;96036.44;5088876;28;20149;-74
2023/05/01 03:05:50;;;;;;;11.48;6.05;;;;;;;8.76;72.84;96033.22;5087801;28;20043;-74
2023/05/01 03:08:17;;;;;;;8.57;5.43;;;;;;;8.72;73.14;96033.06;5088010;28;20899;-75
2023/05/01 03:10:43;;;;;;;13.00;7.05;;;;;;;8.70;73.14;96037.19;5089270;28;20059;-74
2023/05/01 03:13:11;;;;;;;13.02;6.22;;;;;;;8.68;73.64;96031.28;5094818;28;20048;-75
2023/05/01 03:15:40;;;;;;;8.82;5.78;;;;;;;8.63;73.74;96033.00;5096961;28;20075;-75
2023/05/01 03:18:08;;;;;;;11.77;6.57;;;;;;;8.57;73.72;96036.19;5093659;28;20106;-74
2023/05/01 03:20:34;;;;;;;11.02;5.72;;;;;;;8.50;73.90;96028.47;5095149;28;20040;-74
2023/05/01 03:23:01;;;;;;;11.63;6.22;;;;;;;8.45;73.95;96025.91;5095533;28;20044;-74
2023/05/01 03:25:27;;;;;;;12.13;5.90;;;;;;;8.41;74.15;96024.16;5096175;28;20621;-75
2023/05/01 03:27:54;;;;;;;10.95;6.30;;;;;;;8.37;74.56;96023.94;5095667;28;20423;-75
2023/05/01 03:30:20;;;;;;;12.18;6.57;;;;;;;8.35;74.85;96023.41;5095919;28;20047;-75
2023/05/01 03:32:48;;;;;;;13.02;6.97;;;;;;;8.32;75.13;96026.78;5094931;28;20047;-74
2023/05/01 03:35:15;;;;;;;12.70;7.07;;;;;;;8.28;75.23;96018.44;5094875;28;20115;-74
2023/05/01 03:37:41;;;;;;;11.63;6.75;;;;;;;8.26;75.23;96023.38;5096571;28;20394;-74
2023/05/01 03:40:09;;;;;;;11.52;6.35;;;;;;;8.23;75.45;96020.50;5095886;28;20071;-74
2023/05/01 03:42:35;;;;;;;11.65;5.90;;;;;;;8.23;75.70;96024.00;5088711;28;20040;-75
2023/05/01 03:45:02;;;;;;;13.50;7.22;;;;;;;8.23;75.70;96026.72;5096398;28;20044;-75
2023/05/01 03:47:29;;;;;;;10.63;6.28;;;;;;;8.25;76.69;96015.56;5096885;27;20044;-74
2023/05/01 03:49:57;;;;;;;12.77;6.72;;;;;;;8.27;76.82;96018.75;5097233;27;20047;-75
2023/05/01 03:52:23;;;;;;;11.25;6.50;;;;;;;8.27;76.73;96007.91;5096806;28;20566;-74
2023/05/01 03:54:50;;;;;;;13.45;7.13;;;;;;;8.27;76.48;96018.75;5096792;28;20055;-75
2023/05/01 03:57:16;;;;;;;12.07;6.50;;;;;;;8.27;76.36;96008.72;5097473;28;20055;-75
2023/05/01 03:59:43;;;;;;;14.00;6.88;;;;;;;8.28;76.07;96004.09;5099181;28;20051;-74
2023/05/01 04:02:10;;;;;;;15.57;7.82;;;;;;;8.24;75.70;96003.09;5097209;28;20051;-75
2023/05/01 04:04:37;;;;;;;11.43;6.45;;;;;;;8.26;75.91;96006.31;5100052;27;20036;-75
2023/05/01 04:07:04;;;;;;;9.73;6.10;;;;;;;8.29;76.27;96005.69;5100470;28;20048;-75
2023/05/01 04:09:31;;;;;;;12.60;7.03;;;;;;;8.32;77.43;96002.34;5099290;28;20044;-74
2023/05/01 04:11:57;;;;;;;12.20;6.80;;;;;;;8.33;77.28;96007.47;5097125;28;20036;-75
2023/05/01 04:14:24;;;;;;;9.48;6.40;;;;;;;8.36;77.81;96004.16;5098896;28;20044;-74
2023/05/01 04:16:51;;;;;;;10.90;6.93;;;;;;;8.38;77.40;96003.84;5090332;28;20131;-74
2023/05/01 04:19:17;;;;;;;9.38;5.90;;;;;;;8.43;76.86;96002.91;5096001;28;20059;-75
2023/05/01 04:21:44;;;;;;;13.25;7.28;;;;;;;8.42;77.12;96004.81;5093915;28;20052;-75
2023/05/01 04:24:13;;;;;;;14.13;7.38;;;;;;;8.39;76.93;96004.66;5092049;28;20450;-74
2023/05/01 04:26:41;;;;;;;11.70;6.90;;;;;;;8.35;76.74;96004.44;5091471;28;20148;-75
2023/05/01 04:29:07;;;;;;;15.25;7.57;;;;;;;8.35;76.50;96007.13;5092098;28;20051;-74
2023/05/01 04:31:34;;;;;;;13.88;6.90;;;;;;;8.34;77.14;96002.84;5091793;27;20399;-74
2023/05/01 04:34:01;;;;;;;15.70;8.00;;;;;;;8.38;77.53;96009.28;5091353;28;20131;-75
2023/05/01 04:36:28;;;;;;;12.05;7.20;;;;;;;8.36;77.45;96006.09;5084279;28;20048;-74
2023/05/01 04:38:54;;;;;;;12.88;6.75;;;;;;;8.35;77.30;96007.97;5092663;28;20117;-75
2023/05/01 04:41:22;;;;;;;16.25;8.00;;;;;;;8.36;77.20;96006.09;5090428;27;20051;-74
2023/05/01 04:43:49;;;;;;;13.77;6.65;;;;;;;8.35;77.56;96009.84;5092565;28;20044;-75
2023/05/01 04:46:16;;;;;;;16.13;7.60;;;;;;;8.37;77.85;96007.69;5091245;28;20048;-75
2023/05/01 04:48:42;;;;;;;12.25;6.97;;;;;;;8.35;78.63;96010.69;5092380;28;20052;-75
2023/05/01 04:51:09;;;;;;;11.25;7.25;;;;;;;8.35;78.75;96020.72;5090297;27;20047;-75
2023/05/01 04:53:35;;;;;;;11.43;7.45;;;;;;;8.34;78.96;96019.09;5092193;28;20048;-74
2023/05/01 04:56:02;;;;;;;13.35;7.72;;;;;;;8.35;78.76;96026.13;5092081;28;20040;-75
2023/05/01 04:58:29;;;;;;;11.57;7.70;;;;;;;8.39;78.97;96026.34;5083797;28;20105;-74
2023/05/01 05:00:56;;;;;;;14.85;7.55;;;;;;;8.49;78.78;96024.16;5089538;28;20048;-75
2023/05/01 05:03:23;;;;;;;14.50;8.43;;;;;;;8.57;78.95;96033.47;5090048;27;20070;-75
2023/05/01 05:05:49;;;;;;;12.48;7.53;;;;;;;8.66;78.71;96033.50;5091446;28;20044;-74
2023/05/01 05:08:16;;;;;;;13.25;8.05;;;;;;;8.69;78.19;96030.16;5089784;28;20051;-75
2023/05/01 05:10:42;;;;;;;13.70;8.18;;;;;;;8.67;78.12;96027.78;5090373;28;20097;-74
2023/05/01 05:13:09;;;;;;;11.35;7.07;;;;;;;8.72;76.62;96026.81;5090784;27;20051;-75
2023/05/01 05:15:37;;;;;;;11.50;7.30;;;;;;;8.88;75.83;96030.72;5091823;28;20488;-75
2023/05/01 05:18:04;;;;;;;13.32;7.63;;;;;;;8.94;74.80;96032.16;5090978;28;20044;-75
2023/05/01 05:20:30;;;;;;;16.17;8.80;;;;;;;8.95;75.14;96028.34;5089669;27;20071;-74
2023/05/01 05:22:57;;;;;;;11.65;7.30;;;;;;;9.14;75.31;96025.34;5091493;28;20055;-75
2023/05/01 05:25:24;;;;;;;14.95;7.90;;;;;;;9.12;74.46;96022.94;5090822;28;20440;-75
2023/05/01 05:27:50;;;;;;;10.68;7.25;;;;;;;9.10;73.73;96029.81;5090565;28;20044;-75
2023/05/01 05:30:17;;;;;;;13.95;8.13;;;;;;;9.18;73.50;96022.78;5091154;28;20127;-75
2023/05/01 05:32:46;;;;;;;13.40;7.65;;;;;;;9.01;72.98;96016.22;5089748;27;20048;-75
2023/05/01 05:35:12;;;;;;;11.23;7.32;;;;;;;9.17;73.27;96018.47;5090001;28;20329;-74
2023/05/01 05:37:39;;;;;;;12.00;7.20;;;;;;;9.33;73.70;96009.53;5091513;28;20036;-75
2023/05/01 05:40:07;;;;;;;12.15;7.93;;;;;;;9.38;73.27;96014.81;5091036;28;20491;-75
2023/05/01 05:42:33;;;;;;;11.38;7.65;;;;;;;9.37;72.40;96012.44;5088660;28;20040;-74
2023/05/01 05:45:00;;;;;;;13.38;8.05;;;;;;;9.20;74.11;96007.00;5091243;28;20499;-75
2023/05/01 05:47:26;;;;;;;13.10;8.02;;;;;;;9.31;73.66;96011.00;5090538;28;20055;-74
2023/05/01 05:49:55;;;;;;;13.85;8.00;;;;;;;9.24;73.17;96013.38;5090441;28;20052;-75
2023/05/01 05:52:21;;;;;;;11.57;7.55;;;;;;;9.35;73.08;96020.13;5089465;28;20052;-75
2023/05/01 05:54:48;;;;;;;12.80;8.02;;;;;;;9.35;73.80;96014.69;5090100;28;20048;-74
2023/05/01 05:57:15;;;;;;;12.45;7.72;;;;;;;9.46;73.81;96013.25;5090374;28;20381;-74
2023/05/01 05:59:41;;;;;;;14.15;7.95;;;;;;;9.51;73.42;96018.53;5091024;28;20514;-75
2023/05/01 06:02:07;;;;;;;14.45;8.45;;;;;;;9.50;72.60;96025.09;5087399;27;20040;-75
2023/05/01 06:04:34;;;;;;;13.18;7.97;;;;;;;9.62;73.55;96022.53;5090782;28;20055;-75
2023/05/01 06:07:02;;;;;;;11.45;8.00;;;;;;;9.74;73.17;96021.09;5090682;28;20117;-75
2023/05/01 06:09:29;;;;;;;14.48;8.90;;;;;;;9.96;71.85;96020.09;5090520;28;20074;-74
2023/05/01 06:11:57;;;;;;;12.77;8.32;;;;;;;10.11;71.76;96008.72;5088222;27;20056;-74
2023/05/01 06:14:23;;;;;;;14.23;7.35;;;;;;;10.26;71.29;96012.88;5089775;28;20044;-75
2023/05/01 06:16:50;;;;;;;13.38;8.07;;;;;;;10.37;70.05;96019.56;5090685;28;20055;-75
2023/05/01 06:19:16;;;;;;;10.50;7.72;;;;;;;10.43;69.58;96015.56;5090177;28;20063;-75
2023/05/01 06:21:43;;;;;;;10.95;7.65;;;;;;;10.49;69.01;96025.13;5089151;27;20044;-75
2023/05/01 06:24:11;;;;;;;14.77;7.95;;;;;;;10.45;69.70;96018.75;5088388;27;20043;-75
2023/05/01 06:26:37;;;;;;;11.48;7.10;;;;;;;10.56;68.45;96014.56;5091245;28;20074;-77
2023/05/01 06:29:04;;;;;;;11.45;8.13;;;;;;;10.56;69.01;96019.22;5090759;28;20047;-75
2023/05/01 06:31:30;;;;;;;11.25;7.65;;;;;;;10.59;68.38;96013.09;5089017;27;20403;-74
2023/05/01 06:33:57;;;;;;;10.40;6.78;;;;;;;10.67;68.22;96010.34;5089746;28;20051;-74
2023/05/01 06:36:23;;;;;;;11.23;7.13;;;;;;;10.42;67.36;96020.19;5089787;28;20039;-74
2023/05/01 06:38:50;;;;;;;11.27;7.18;;;;;;;10.56;68.29;96020.00;5090723;28;20070;-74
2023/05/01 06:41:18;;;;;;;11.27;7.57;;;;;;;10.53;68.01;96019.84;5090182;28;20048;-74
2023/05/01 06:43:44;;;;;;;10.93;7.07;;;;;;;10.62;67.62;96015.97;5088372;28;20056;-74
2023/05/01 06:46:11;;;;;;;11.73;7.60;;;;;;;10.59;68.35;96022.06;5089476;28;20048;-74
2023/05/01 06:48:37;;;;;;;10.27;7.65;;;;;;;10.52;68.59;96027.22;5089567;28;20159;-74
2023/05/01 06:51:04;;;;;;;11.05;7.00;;;;;;;10.56;68.45;96030.91;5090596;28;20066;-74
2023/05/01 06:53:31;;;;;;;12.25;7.18;;;;;;;10.71;68.10;96026.84;5089954;28;20717;-74
2023/05/01 06:55:57;;;;;;;10.13;7.28;;;;;;;10.73;69.38;96018.34;5091842;28;20062;-74
2023/05/01 06:58:25;;;;;;;10.13;7.45;;;;;;;10.65;68.95;96026.22;5090598;28;20043;-74
2023/05/01 07:00:53;;;;;;;10.43;7.53;;;;;;;10.57;69.75;96018.88;5090967;28;20044;-74
2023/05/01 07:03:20;;;;;;;11.88;7.75;;;;;;;10.70;69.50;96019.78;5088245;28;20666;-74
2023/05/01 07:05:46;;;;;;;11.27;7.85;;;;;;;10.91;70.54;96022.56;5089492;28;20044;-75
2023/05/01 07:08:13;;;;;;;11.32;7.78;;;;;;;10.93;68.79;96023.06;5089526;28;20051;-74
2023/05/01 07:10:39;;;;;;;8.90;6.97;;;;;;;11.00;69.06;96020.59;5090437;28;20445;-74
2023/05/01 07:13:06;;;;;;;8.90;6.38;;;;;;;11.11;68.86;96023.75;5088656;28;20048;-75
2023/05/01 07:15:33;;;;;;;12.23;8.43;;;;;;;11.04;68.63;96024.28;5088691;28;20040;-74
2023/05/01 07:18:01;;;;;;;12.90;7.75;;;;;;;11.10;68.67;96022.97;5087107;27;20101;-75
2023/05/01 07:20:28;;;;;;;10.35;7.07;;;;;;;11.30;69.27;96021.41;5088408;28;20126;-75
2023/05/01 07:22:54;;;;;;;15.82;8.45;;;;;;;11.16;68.53;96018.13;5087225;28;20311;-74
2023/05/01 07:25:21;;;;;;;12.10;8.07;;;;;;;11.30;67.73;96015.16;5090119;27;20051;-76
2023/05/01 07:27:47;;;;;;;10.90;7.25;;;;;;;11.39;67.29;96016.69;5090218;28;20074;-75
2023/05/01 07:30:14;;;;;;;12.40;7.82;;;;;;;11.45;67.48;96009.13;5087909;28;20051;-74
2023/05/01 07:32:42;;;;;;;10.00;7.10;;;;;;;11.46;67.50;96011.50;5088588;28;20719;-75
2023/05/01 07:35:09;;;;;;;15.43;7.97;;;;;;;11.39;67.61;96010.44;5088419;28;20071;-74
2023/05/01 07:37:35;;;;;;;9.82;6.95;;;;;;;11.54;68.13;96003.59;5087235;27;20052;-74
2023/05/01 07:40:02;;;;;;;10.98;7.32;;;;;;;11.61;66.95;96009.31;5088258;28;20047;-74
2023/05/01 07:42:29;;;;;;;12.45;7.85;;;;;;;11.75;66.38;96009.88;5087145;28;20050;-74
2023/05/01 07:44:56;;;;;;;11.23;7.78;;;;;;;11.77;66.99;96013.84;5085302;28;20055;-75
2023/05/01 07:47:23;;;;;;;12.02;8.60;;;;;;;11.72;66.06;96016.75;5084490;27;20422;-75
2023/05/01 07:49:50;;;;;;;11.40;7.90;;;;;;;11.76;65.22;96012.25;5086912;28;20060;-75
2023/05/01 07:52:17;;;;;;;10.55;7.20;;;;;;;11.76;65.58;96014.97;5085498;28;20052;-74
2023/05/01 07:54:43;;;;;;;14.00;8.30;;;;;;;11.67;65.82;96011.50;5085688;28;20055;-75
2023/05/01 07:57:10;;;;;;;12.63;6.68;;;;;;;11.92;66.20;96020.66;5083056;27;20094;-74
2023/05/01 07:59:36;;;;;;;11.68;6.80;;;;;;;12.15;65.75;96018.34;5088031;28;20673;-75
2023/05/01 08:02:03;;;;;;;11.65;8.27;;;;;;;12.08;65.44;96020.81;5091312;28;20048;-75
2023/05/01 08:04:29;;;;;;;12.63;7.65;;;;;;;11.95;65.13;96020.00;5090448;28;20039;-74
2023/05/01 08:06:57;;;;;;;14.75;8.00;;;;;;;11.53;64.78;96013.69;5088687;28;20054;-75
2023/05/01 08:09:24;;;;;;;9.95;6.70;;;;;;;11.97;65.87;96016.91;5091665;28;20044;-75
2023/05/01 08:11:50;;;;;;;13.50;6.55;;;;;;;11.73;63.64;96023.81;5093086;28;20137;-74
2023/05/01 08:14:18;;;;;;;11.55;6.28;;;;;;;11.96;63.93;96018.06;5091665;27;20047;-75
2023/05/01 08:16:44;;;;;;;12.13;7.38;;;;;;;12.04;63.95;96016.38;5092100;28;20519;-74
2023/05/01 08:19:11;;;;;;;11.35;6.55;;;;;;;11.98;63.76;96023.97;5092714;28;20551;-75
2023/05/01 08:21:37;;;;;;;11.30;7.13;;;;;;;11.76;64.15;96028.63;5092321;28;20557;-75
2023/05/01 08:24:09;;;;;;;9.93;6.68;;;;;;;11.62;64.18;96030.81;5092331;28;20040;-74
2023/05/01 08:26:35;;;;;;;8.57;6.43;;;;;;;11.17;65.95;96031.44;5090594;27;20044;-75
2023/05/01 08:29:02;;;;;;;12.30;7.15;;;;;;;11.28;67.89;96039.22;5090142;28;20048;-75
2023/05/01 08:31:29;;;;;;;12.50;8.25;;;;;;;11.24;67.14;96039.88;5091796;27;20047;-75
2023/05/01 08:33:56;;;;;;;10.68;7.68;;;;;;;11.33;68.53;96034.38;5089864;28;20487;-75
2023/05/01 08:36:22;;;;;;;12.30;7.22;;;;;;;11.37;67.29;96046.19;5092106;28;20048;-75
2023/05/01 08:38:49;;;;;;;12.77;7.70;;;;;;;11.43;69.57;96039.44;5090591;28;20048;-75
2023/05/01 08:41:21;;;;;;;10.90;7.78;;;;;;;11.54;69.35;96045.31;5092148;28;20050;-75
2023/05/01 08:43:48;;;;;;;10.10;7.18;;;;;;;11.76;68.89;96044.19;5085425;28;20048;-76
2023/05/01 08:46:25;;;;;;;10.63;7.45;;;;;;;11.86;69.00;96043.03;5090332;28;20051;-73
2023/05/01 08:48:54;;;;;;;12.50;7.63;;;;;;;12.02;68.14;96044.78;5093786;27;20093;-74
2023/05/01 08:51:22;;;;;;;10.98;7.50;;;;;;;11.88;68.00;96041.53;5093150;28;20052;-74
2023/05/01 08:53:52;;;;;;;11.10;7.75;;;;;;;11.99;69.58;96041.94;5091473;28;20048;-75
2023/05/01 08:56:22;;;;;;;8.23;6.80;;;;;;;12.07;68.00;96043.78;5091973;28;20040;-74
2023/05/01 08:58:49;;;;;;;9.52;7.38;;;;;;;11.67;66.82;96046.16;5092562;28;20478;-74
2023/05/01 09:01:22;;;;;;;12.00;7.35;;;;;;;11.67;67.06;96046.97;5098968;27;20047;-74
2023/05/01 09:03:51;;;;;;;13.25;7.80;;;;;;;11.79;68.33;96042.72;5086155;28;20079;-74
2023/05/01 09:06:18;;;;;;;10.48;7.72;;;;;;;11.90;66.93;96050.22;5088079;28;20044;-74
2023/05/01 09:08:45;;;;;;;10.77;7.40;;;;;;;11.64;67.07;96053.09;5093224;28;20047;-74
2023/05/01 09:11:14;;;;;;;10.18;6.75;;;;;;;11.37;68.64;96048.13;5091978;27;20051;-74
2023/05/01 09:13:42;;;;;;;11.15;7.10;;;;;;;11.46;68.24;96057.06;5093698;28;20036;-74
2023/05/01 09:16:11;;;;;;;10.35;7.07;;;;;;;11.47;67.70;96059.44;5090628;27;20047;-75
2023/05/01 09:18:38;;;;;;;12.73;7.40;;;;;;;11.74;67.44;96049.97;5096640;28;20056;-75
2023/05/01 09:21:09;;;;;;;9.75;7.20;;;;;;;11.79;67.28;96053.63;5091888;28;20047;-75
2023/05/01 09:23:36;;;;;;;10.82;7.47;;;;;;;11.64;67.60;96060.47;5091485;28;20048;-75
2023/05/01 09:26:07;;;;;;;12.60;7.30;;;;;;;11.57;68.58;96054.75;5090092;28;20048;-74
2023/05/01 09:28:43;;;;;;;11.20;8.48;;;;;;;11.61;67.83;96059.22;5088096;28;20048;-75
2023/05/01 09:31:23;;;;;;;10.93;7.63;;;;;;;11.75;68.98;96065.22;5092231;28;20039;-75
2023/05/01 09:33:56;;;;;;;10.63;7.80;;;;;;;11.74;68.67;96058.16;5093269;28;20048;-73
2023/05/01 09:36:23;;;;;;;;;;;;;;;11.91;69.04;96061.91;5090164;28;20039;-75
2023/05/01 09:38:51;;;;;;;12.20;7.95;;;;;;;11.90;67.31;96058.41;5091316;28;19966;-75
2023/05/01 09:41:20;;;;;;;12.25;8.38;;;;;;;11.68;67.05;96054.00;5087189;27;20153;-74
2023/05/01 09:43:52;;;;;;;13.77;8.32;;;;;;;11.81;68.78;96062.28;5089681;28;20055;-74
2023/05/01 09:46:19;;;;;;;12.50;8.45;;;;;;;11.98;69.62;96060.22;5093553;28;20044;-75
2023/05/01 09:48:53;;;;;;;10.15;7.68;;;;;;;12.16;68.83;96058.16;5090871;28;20433;-73
2023/05/01 09:51:22;;;;;;;14.00;9.50;;;;;;;12.24;67.57;96060.00;5089015;28;20059;-75
2023/05/01 09:53:49;;;;;;;13.30;9.18;;;;;;;12.48;72.14;96056.56;5087710;28;20055;-74
2023/05/01 09:56:16;;;;;;;13.95;8.82;;;;;;;12.41;69.42;96053.56;5090741;28;20137;-74
2023/05/01 09:58:43;;;;;;;11.05;7.68;;;;;;;12.67;66.11;96055.25;5091063;28;20051;-74
2023/05/01 10:01:11;;;;;;;13.15;8.75;;;;;;;12.69;67.73;96047.53;5090409;28;20048;-74
2023/05/01 10:03:37;;;;;;;13.32;7.85;;;;;;;12.86;64.88;96055.50;5089982;27;20043;-74
2023/05/01 10:06:04;;;;;;;13.23;9.25;;;;;;;12.93;66.21;96063.13;5092987;28;20048;-75
2023/05/01 10:08:45;;;;;;;13.18;8.00;;;;;;;12.72;69.15;96053.09;5091207;28;20043;-74
2023/05/01 10:11:11;;;;;;;11.60;8.50;;;;;;;12.85;67.86;96064.06;5090449;28;20048;-75
2023/05/01 10:13:38;;;;;;;15.60;9.15;;;;;;;12.92;68.49;96051.41;5088750;28;20403;-73
2023/05/01 10:16:06;;;;;;;12.15;8.18;;;;;;;12.99;68.64;96056.31;5089615;28;20052;-74
2023/05/01 10:18:35;;;;;;;12.68;8.75;;;;;;;12.64;65.46;96051.25;5088113;28;20044;-74
2023/05/01 10:21:03;;;;;;;11.95;7.65;;;;;;;12.80;67.68;96054.94;5089056;28;20048;-74
2023/05/01 10:23:29;;;;;;;12.65;8.65;;;;;;;12.86;65.67;96046.50;5088300;28;20259;-74
2023/05/01 10:25:57;;;;;;;14.48;8.48;;;;;;;12.83;68.48;96058.91;5088890;28;20068;-75
2023/05/01 10:28:27;;;;;;;12.65;9.05;;;;;;;12.88;66.10;96060.63;5088311;28;20136;-74
2023/05/01 10:30:55;;;;;;;13.43;8.75;;;;;;;12.80;68.19;96060.41;5090446;28;20051;-74
2023/05/01 10:33:22;;;;;;;12.98;9.02;;;;;;;12.74;69.43;96056.28;5089419;28;20097;-74
2023/05/01 10:35:57;;;;;;;9.32;7.53;;;;;;;12.98;68.07;96060.19;5090028;28;20127;-74
2023/05/01 10:38:30;;;;;;;14.88;9.60;;;;;;;12.96;66.13;96065.19;5087069;27;20044;-75
2023/05/01 10:40:56;;;;;;;;;;;;;;;12.92;66.77;96056.06;5090654;28;20044;-74
2023/05/01 10:43:27;;;;;;;15.05;8.90;;;;;;;12.98;68.02;96054.72;5089387;28;19919;-74
2023/05/01 10:46:15;;;;;;;13.63;8.57;;;;;;;13.04;66.96;96058.81;5087648;28;20093;-73
2023/05/01 10:48:57;;;;;;;11.95;9.50;;;;;;;13.03;69.77;96055.28;5089538;28;20485;-74
2023/05/01 10:51:26;;;;;;;15.43;9.32;;;;;;;12.78;67.05;96049.00;5087906;27;20040;-74
2023/05/01 10:54:25;;;;;;;12.63;8.13;;;;;;;12.49;67.25;96054.63;5089001;28;20490;-74
2023/05/01 10:56:52;;;;;;;11.60;8.10;;;;;;;12.27;67.70;96044.91;5088724;28;20044;-74
2023/05/01 10:59:19;;;;;;;13.32;8.32;;;;;;;12.47;68.48;96045.97;5089315;28;20055;-74
2023/05/01 11:01:47;;;;;;;15.00;9.32;;;;;;;12.60;68.31;96046.81;5088786;28;20079;-74
2023/05/01 11:04:47;;;;;;;11.13;7.78;;;;;;;12.70;67.85;96047.16;5085172;28;20048;-74
2023/05/01 11:07:16;;;;;;;12.00;8.30;;;;;;;12.95;69.47;96045.28;5082349;28;20059;-74
2023/05/01 11:09:44;;;;;;;19.00;8.65;;;;;;;12.94;69.82;96040.13;5089803;28;20097;-74
2023/05/01 11:12:12;;;;;;;11.95;9.52;;;;;;;12.68;70.94;96041.22;5089405;28;20087;-74
2023/05/01 11:15:06;;;;;;;15.45;8.93;;;;;;;12.67;70.85;96033.38;5088752;28;20036;-74
2023/05/01 11:17:45;;;;;;;14.65;9.32;;;;;;;12.69;70.55;96048.31;5089205;28;20135;-73
2023/05/01 11:20:13;;;;;;;13.40;8.38;;;;;;;12.77;68.78;96044.66;5089579;28;20067;-74
2023/05/01 11:22:46;;;;;;;13.00;9.32;;;;;;;12.90;71.81;96037.28;5089929;28;20067;-74
2023/05/01 11:25:20;;;;;;;13.70;9.95;;;;;;;12.55;73.57;96039.63;5088361;28;20090;-74
2023/05/01 11:27:48;;;;;;;14.30;9.98;;;;;;;12.47;76.41;96045.97;5086253;28;20132;-73
2023/05/01 11:30:14;;;;;;;11.75;9.07;;;;;;;12.74;74.58;96039.09;5088051;27;20044;-73
2023/05/01 11:32:44;;;;;;;13.13;9.48;;;;;;;12.99;74.39;96050.84;5090228;28;20454;-73
2023/05/01 11:35:17;;;;;;;13.90;9.77;;;;;;;12.69;74.20;96045.59;5091538;27;20051;-75